Time;durP1;ratioP1;P1;durP2;ratioP2;P2;SDS_P1;SDS_P2;PMS_P1;PMS_P2;Temp;Humidity;BMP_temperature;BMP_pressure;BME280_temperature;BME280_humidity;BME280_pressure;Samples;Min_cycle;Max_cycle;Signal;HPM_P1;HPM_P2
2023/08/09 04:21:38;;;;;;;;;;;;;;;17.08;74.36;99657.66;1087466;54;19950;-85
2023/08/09 04:24:47;;;;;;;;;;;;;;;17.07;74.17;99660.56;1087511;54;19973;-83
2023/08/09 14:48:30;;;;;;;;;;;;;;;21.91;58.86;99911.38;1086735;47;19939;-87
2023/08/09 14:57:46;;;;;;;;;;;;;;;21.55;57.97;99914.78;1087553;47;19935;-86
2023/08/09 14:58:53;;;;;;;;;;;;;;;21.63;58.46;99914.53;1087076;47;19968;-86
2023/08/09 14:59:57;;;;;;;;;;;;;;;21.62;57.91;99916.44;1087178;47;19957;-87
2023/08/09 15:00:58;;;;;;;;;;;;;;;21.56;58.02;99919.97;1087237;54;19946;-86
2023/08/09 15:02:02;;;;;;;;;;;;;;;21.61;57.81;99916.63;1087050;47;20281;-86
2023/08/09 15:03:06;;;;;;;;;;;;;;;21.72;57.62;99926.81;1087204;54;19942;-86
2023/08/09 15:04:18;;;;;;;;;;;;;;;21.58;58.19;99912.47;1087436;46;19942;-85
2023/08/09 15:05:19;;;;;;;;;;;;;;;21.65;58.17;99917.88;1088870;31;20815;-85
2023/08/09 15:06:22;;;;;;;;;;;;;;;21.66;57.91;99917.63;1087243;46;19950;-83
2023/08/09 15:07:23;;;;;;;;;;;;;;;21.72;57.79;99917.81;1087205;54;19954;-83
2023/08/09 15:08:26;;;;;;;;;;;;;;;21.71;57.77;99918.88;1087237;54;19943;-88
2023/08/09 15:09:28;;;;;;;;;;;;;;;21.70;57.78;99914.47;1087493;47;19942;-86
2023/08/09 15:10:33;;;;;;;;;;;;;;;21.77;57.33;99923.41;1087267;47;19947;-86
2023/08/09 15:11:35;;;;;;;;;;;;;;;21.77;57.75;99921.50;1087165;47;19998;-86
2023/08/09 15:12:38;;;;;;;;;;;;;;;21.84;57.33;99921.47;1087281;54;19954;-86
2023/08/09 15:13:42;;;;;;;;;;;;;;;21.74;57.79;99924.69;1087189;47;21059;-85
2023/08/09 15:14:45;;;;;;;;;;;;;;;21.63;57.80;99928.94;1087175;54;20015;-86
2023/08/09 15:15:46;;;;;;;;;;;;;;;21.62;57.71;99929.19;1087095;47;20002;-86
2023/08/09 15:16:49;;;;;;;;;;;;;;;21.63;57.50;99926.22;1087196;47;19946;-82
2023/08/09 15:17:58;;;;;;;;;;;;;;;21.71;57.48;99935.19;1087023;47;19943;-86
2023/08/09 15:19:01;;;;;;;;;;;;;;;21.79;57.45;99934.91;1087271;47;19955;-89
2023/08/09 15:20:02;;;;;;;;;;;;;;;21.82;57.37;99923.59;1087137;47;19943;-85
2023/08/09 15:21:06;;;;;;;;;;;;;;;21.69;57.78;99931.84;1087308;54;19949;-85
2023/08/09 15:22:07;;;;;;;;;;;;;;;21.76;57.51;99922.59;1087139;47;19951;-84
2023/08/09 15:23:10;;;;;;;;;;;;;;;21.81;57.61;99917.31;1087328;54;20014;-85
2023/08/09 15:24:11;;;;;;;;;;;;;;;21.86;57.55;99921.25;1087318;54;20003;-85
2023/08/09 15:25:20;;;;;;;;;;;;;;;21.91;57.23;99915.97;1087586;54;19966;-87
2023/08/09 15:26:23;;;;;;;;;;;;;;;21.97;57.50;99918.66;1087388;47;19954;-87
2023/08/09 15:27:27;;;;;;;;;;;;;;;21.97;57.37;99921.38;1087397;54;19949;-81
2023/08/09 15:28:28;;;;;;;;;;;;;;;22.02;56.87;99917.13;1087287;47;19996;-86
2023/08/09 15:29:34;;;;;;;;;;;;;;;22.04;56.98;99915.03;1087370;46;19942;-84
2023/08/09 15:30:35;;;;;;;;;;;;;;;22.01;57.26;99913.59;1087319;47;20344;-83
2023/08/09 15:31:39;;;;;;;;;;;;;;;22.06;57.14;99915.63;1087246;54;19951;-85
2023/08/09 15:32:39;;;;;;;;;;;;;;;22.05;57.00;99917.53;1087508;54;19942;-85
2023/08/09 15:33:43;;;;;;;;;;;;;;;22.08;57.24;99924.41;1087488;54;19966;-85
2023/08/09 15:34:43;;;;;;;;;;;;;;;22.00;57.22;99922.81;1087354;47;19998;-86
2023/08/09 15:35:47;;;;;;;;;;;;;;;22.01;57.47;99920.94;1087258;47;20654;-85
2023/08/09 15:36:49;;;;;;;;;;;;;;;22.09;56.93;99912.47;1087160;46;19942;-85
2023/08/09 15:37:54;;;;;;;;;;;;;;;22.13;57.11;99910.94;1087128;47;19942;-85
2023/08/09 15:38:55;;;;;;;;;;;;;;;21.95;57.13;99918.03;1087309;54;20876;-87
2023/08/09 15:40:09;;;;;;;;;;;;;;;22.06;57.22;99913.72;1087395;47;19934;-84
2023/08/09 15:41:09;;;;;;;;;;;;;;;22.08;57.28;99910.81;1087383;47;19949;-83
2023/08/09 15:42:10;;;;;;;;;;;;;;;22.16;57.16;99915.09;1087194;54;19943;-82
2023/08/09 15:43:14;;;;;;;;;;;;;;;22.19;57.08;99914.66;1087374;54;19977;-86
2023/08/09 15:44:16;;;;;;;;;;;;;;;22.21;57.14;99916.09;1087192;47;19942;-83
2023/08/09 15:45:22;;;;;;;;;;;;;;;22.15;57.18;99906.13;1087334;47;19964;-85
2023/08/09 15:46:23;;;;;;;;;;;;;;;22.02;57.69;99917.13;1087424;47;19938;-86
2023/08/09 15:47:26;;;;;;;;;;;;;;;22.05;57.54;99922.13;1087245;47;20006;-85
2023/08/09 15:48:31;;;;;;;;;;;;;;;21.96;57.70;99913.44;1087109;47;20310;-85
2023/08/09 15:49:34;;;;;;;;;;;;;;;21.84;58.35;99916.03;1087494;54;19975;-85
2023/08/09 15:50:36;;;;;;;;;;;;;;;21.81;58.32;99911.88;1087598;54;20027;-86
2023/08/09 15:51:40;;;;;;;;;;;;;;;21.80;58.93;99915.63;1087214;54;19939;-83
2023/08/09 15:52:41;;;;;;;;;;;;;;;21.78;58.97;99917.75;1087261;54;19942;-82
2023/08/09 16:01:27;;;;;;;;;;;;;;;21.60;59.93;99915.81;1087090;54;19935;-83
2023/08/09 16:02:31;;;;;;;;;;;;;;;21.49;60.21;99921.91;1086907;47;19987;-83
2023/08/09 16:03:34;;;;;;;;;;;;;;;21.40;60.71;99923.25;1087163;54;19970;-83
2023/08/09 16:04:38;;;;;;;;;;;;;;;21.43;61.08;99920.91;1087142;54;19942;-85
2023/08/09 16:05:41;;;;;;;;;;;;;;;21.55;61.08;99921.03;1087112;47;19943;-82
2023/08/09 16:06:42;;;;;;;;;;;;;;;21.47;61.32;99924.03;1087243;54;19942;-84
2023/08/09 16:07:45;;;;;;;;;;;;;;;21.40;61.24;99926.78;1087308;54;19938;-84
2023/08/09 16:08:46;;;;;;;;;;;;;;;21.35;61.45;99924.72;1087320;54;19942;-83
2023/08/09 16:09:49;;;;;;;;;;;;;;;21.36;61.48;99917.41;1087576;54;19978;-85
2023/08/09 16:10:51;;;;;;;;;;;;;;;21.36;62.01;99925.56;1087267;47;19938;-84
2023/08/09 16:11:54;;;;;;;;;;;;;;;21.31;62.10;99923.50;1087282;47;19967;-83
2023/08/09 16:12:55;;;;;;;;;;;;;;;21.21;62.45;99927.75;1087346;46;19954;-82
2023/08/09 16:13:59;;;;;;;;;;;;;;;21.28;62.16;99923.94;1087339;54;19942;-83
2023/08/09 16:14:59;;;;;;;;;;;;;;;21.31;62.17;99933.53;1087009;54;20071;-81
2023/08/09 16:16:04;;;;;;;;;;;;;;;21.35;62.04;99930.16;1087252;54;19946;-84
2023/08/09 16:17:05;;;;;;;;;;;;;;;21.39;62.15;99932.44;1088694;39;20440;-81
2023/08/09 16:18:11;;;;;;;;;;;;;;;21.45;62.03;99926.97;1087128;54;19947;-83
2023/08/09 16:19:12;;;;;;;;;;;;;;;21.46;61.49;99941.38;1087207;47;19942;-85
2023/08/09 16:20:15;;;;;;;;;;;;;;;21.44;61.10;99938.91;1086773;47;19957;-83
2023/08/09 16:21:16;;;;;;;;;;;;;;;21.33;60.72;99931.44;1087262;54;19951;-81
2023/08/09 16:22:23;;;;;;;;;;;;;;;21.31;61.08;99937.09;1087427;54;19966;-82
2023/08/09 16:23:24;;;;;;;;;;;;;;;21.26;60.94;99942.34;1087175;54;19942;-85
2023/08/09 16:24:27;;;;;;;;;;;;;;;21.18;61.50;99939.88;1087287;54;19949;-84
2023/08/09 16:25:28;;;;;;;;;;;;;;;21.17;61.39;99944.50;1087390;54;19942;-83
2023/08/09 16:26:32;;;;;;;;;;;;;;;21.27;61.15;99943.19;1087189;54;19942;-84
2023/08/09 16:27:33;;;;;;;;;;;;;;;21.34;61.11;99950.25;1085702;47;19951;-83
2023/08/09 16:28:36;;;;;;;;;;;;;;;21.37;60.64;99949.00;1087484;47;19939;-86
2023/08/09 16:29:37;;;;;;;;;;;;;;;21.42;60.82;99953.78;1087323;54;19942;-81
2023/08/09 16:30:40;;;;;;;;;;;;;;;21.45;60.69;99950.59;1086983;54;19950;-80
2023/08/09 16:31:41;;;;;;;;;;;;;;;21.44;60.53;99954.38;1087379;54;19942;-81
2023/08/09 16:32:45;;;;;;;;;;;;;;;21.39;60.71;99956.91;1086583;47;19942;-81
2023/08/09 16:33:51;;;;;;;;;;;;;;;21.43;60.64;99963.59;1086075;54;19958;-80
2023/08/09 16:34:52;;;;;;;;;;;;;;;21.45;60.61;99969.63;1085629;54;19950;-81
2023/08/09 16:35:55;;;;;;;;;;;;;;;21.45;60.49;99961.47;1086606;54;19943;-80
2023/08/09 16:36:56;;;;;;;;;;;;;;;21.48;60.46;99966.47;1085976;47;19942;-80
2023/08/09 16:38:00;;;;;;;;;;;;;;;21.47;60.27;99959.38;1085118;39;20014;-79
2023/08/09 16:39:00;;;;;;;;;;;;;;;21.43;60.63;99967.13;1085326;54;19958;-80
2023/08/09 16:40:04;;;;;;;;;;;;;;;21.46;60.39;99965.84;1085726;47;19950;-80
2023/08/09 16:41:05;;;;;;;;;;;;;;;21.47;60.54;99959.38;1086126;54;20068;-82
2023/08/09 16:42:10;;;;;;;;;;;;;;;21.47;60.71;99968.38;1086029;54;19949;-79
2023/08/09 16:43:11;;;;;;;;;;;;;;;21.38;61.40;99955.25;1087094;54;19942;-81
2023/08/09 16:44:14;;;;;;;;;;;;;;;21.38;61.67;99960.69;1086789;47;19947;-80
2023/08/09 16:45:15;;;;;;;;;;;;;;;21.30;62.45;99959.91;1087935;39;20560;-80
2023/08/09 16:46:18;;;;;;;;;;;;;;;21.24;62.92;99960.78;1086478;46;19942;-80
2023/08/09 16:47:19;;;;;;;;;;;;;;;21.27;62.54;99968.47;1085506;47;19950;-80
2023/08/09 16:48:23;;;;;;;;;;;;;;;21.16;63.20;99961.03;1085752;54;19951;-80
2023/08/09 16:49:26;;;;;;;;;;;;;;;21.14;63.39;99971.28;1086351;54;19974;-84
2023/08/09 16:50:29;;;;;;;;;;;;;;;21.18;63.18;99970.63;1087274;54;20019;-84
2023/08/09 16:51:33;;;;;;;;;;;;;;;21.24;63.10;99966.22;1087118;47;19972;-83
2023/08/09 16:52:36;;;;;;;;;;;;;;;21.16;63.53;99966.47;1085982;39;20437;-82
2023/08/09 16:53:40;;;;;;;;;;;;;;;21.19;63.13;99968.72;1086992;54;19938;-81
2023/08/09 16:54:41;;;;;;;;;;;;;;;21.23;63.21;99969.97;1086977;54;19982;-83
2023/08/09 16:55:44;;;;;;;;;;;;;;;21.24;63.00;99968.94;1087098;54;19942;-85
2023/08/09 16:56:45;;;;;;;;;;;;;;;21.26;63.37;99974.97;1087187;54;19942;-82
2023/08/09 16:57:50;;;;;;;;;;;;;;;21.22;63.56;99972.88;1087407;54;19947;-82
2023/08/09 16:58:51;;;;;;;;;;;;;;;21.24;63.39;99974.38;1087047;54;19947;-84
2023/08/09 16:59:54;;;;;;;;;;;;;;;21.24;63.40;99976.22;1086761;47;20946;-83
2023/08/09 17:00:56;;;;;;;;;;;;;;;21.23;63.74;99972.69;1086562;47;20055;-83
2023/08/09 17:02:01;;;;;;;;;;;;;;;21.19;64.15;99983.16;1086322;54;19974;-83
2023/08/09 17:03:02;;;;;;;;;;;;;;;21.17;64.74;99976.25;1085972;54;19977;-81
2023/08/09 17:04:09;;;;;;;;;;;;;;;21.11;65.37;99985.28;1086778;47;19970;-83
2023/08/09 17:05:14;;;;;;;;;;;;;;;21.10;65.69;99975.47;1086232;47;20019;-85
2023/08/09 17:06:22;;;;;;;;;;;;;;;21.06;66.29;99979.69;1086800;47;19938;-82
2023/08/09 17:07:24;;;;;;;;;;;;;;;20.97;66.76;99993.47;1087134;39;20797;-81
2023/08/09 17:08:27;;;;;;;;;;;;;;;20.97;67.38;99987.22;1087775;39;20236;-82
2023/08/09 17:09:28;;;;;;;;;;;;;;;20.95;67.15;99990.16;1086068;47;19974;-83
2023/08/09 17:10:32;;;;;;;;;;;;;;;20.91;67.33;99986.19;1086940;54;19943;-83
2023/08/09 17:11:32;;;;;;;;;;;;;;;20.84;67.86;99979.97;1086792;54;19969;-82
2023/08/09 17:12:38;;;;;;;;;;;;;;;20.82;67.62;99987.47;1085940;54;19939;-84
2023/08/09 17:13:38;;;;;;;;;;;;;;;20.69;68.03;99983.72;1086830;47;19980;-87
2023/08/09 17:14:42;;;;;;;;;;;;;;;20.54;68.31;99988.56;1086273;54;19943;-83
2023/08/09 17:15:42;;;;;;;;;;;;;;;20.57;67.91;99988.16;1085841;54;19946;-81
2023/08/09 17:16:44;;;;;;;;;;;;;;;20.67;67.30;99993.97;1085691;54;19951;-82
2023/08/09 17:17:47;;;;;;;;;;;;;;;20.78;67.43;99986.25;1086111;47;20075;-81
2023/08/09 17:18:48;;;;;;;;;;;;;;;20.60;67.35;99985.00;1085291;46;19958;-83
2023/08/09 17:19:48;;;;;;;;;;;;;;;20.56;67.65;99991.91;1086230;47;19938;-82
2023/08/09 17:21:07;;;;;;;;;;;;;;;20.59;67.53;99986.06;1086418;54;19959;-81
2023/08/09 17:22:08;;;;;;;;;;;;;;;20.63;67.42;99994.63;1086858;47;19938;-81
2023/08/09 17:24:51;;;;;;;;;;;;;;;20.45;68.64;100003.41;1086660;47;19938;-85
2023/08/09 17:25:51;;;;;;;;;;;;;;;20.43;68.51;100000.91;1086554;54;19957;-82
2023/08/09 17:26:56;;;;;;;;;;;;;;;20.41;68.89;100001.09;1086374;47;19939;-82
2023/08/09 17:28:02;;;;;;;;;;;;;;;20.42;69.09;100002.78;1086842;54;19946;-82
2023/08/09 17:29:10;;;;;;;;;;;;;;;20.36;69.08;99998.22;1086952;54;19943;-83
2023/08/09 17:30:11;;;;;;;;;;;;;;;20.38;69.24;99998.84;1086464;47;19954;-84
2023/08/09 17:31:27;;;;;;;;;;;;;;;20.39;68.83;99999.66;1086553;54;19943;-84
2023/08/09 17:32:34;;;;;;;;;;;;;;;20.40;68.68;99999.44;1086660;47;19981;-83
2023/08/09 17:33:38;;;;;;;;;;;;;;;20.35;67.54;100007.38;1086864;54;20283;-83
2023/08/09 17:34:39;;;;;;;;;;;;;;;20.25;67.47;99996.97;1086605;47;19951;-82
2023/08/09 17:35:43;;;;;;;;;;;;;;;20.12;68.18;99993.44;1086473;54;19958;-81
2023/08/09 17:36:47;;;;;;;;;;;;;;;20.08;67.89;100006.56;1086810;54;19943;-81
2023/08/09 17:37:50;;;;;;;;;;;;;;;20.02;67.86;100002.81;1087157;54;19954;-86
2023/08/09 17:38:51;;;;;;;;;;;;;;;19.94;67.91;100005.72;1086902;54;19994;-82
2023/08/09 17:39:55;;;;;;;;;;;;;;;20.01;68.04;100005.72;1087035;54;19942;-82
2023/08/09 17:40:56;;;;;;;;;;;;;;;20.06;67.44;100004.06;1086842;54;19949;-84
2023/08/09 17:42:00;;;;;;;;;;;;;;;19.88;67.81;100006.56;1086889;47;20057;-82
2023/08/09 17:43:01;;;;;;;;;;;;;;;19.91;68.33;100014.28;1086251;54;19951;-83
2023/08/09 17:44:04;;;;;;;;;;;;;;;19.91;67.81;100012.38;1086675;54;19942;-83
2023/08/09 17:45:07;;;;;;;;;;;;;;;19.85;67.76;100013.22;1086394;54;19942;-83
2023/08/09 17:46:16;;;;;;;;;;;;;;;19.91;67.68;100011.56;1086818;54;20796;-82
2023/08/09 17:47:16;;;;;;;;;;;;;;;19.81;67.65;100017.34;1086830;47;19950;-83
2023/08/09 17:48:21;;;;;;;;;;;;;;;19.79;67.24;100017.56;1086615;47;19946;-84
2023/08/09 17:49:21;;;;;;;;;;;;;;;19.79;67.17;100020.28;1086619;47;19950;-81
2023/08/09 17:50:25;;;;;;;;;;;;;;;19.77;67.28;100027.78;1086375;47;19950;-82
2023/08/09 17:51:25;;;;;;;;;;;;;;;19.85;66.67;100018.66;1085704;54;19950;-84
2023/08/09 17:52:31;;;;;;;;;;;;;;;19.83;66.95;100026.13;1086949;54;19973;-85
2023/08/09 17:53:33;;;;;;;;;;;;;;;19.82;66.52;100026.34;1087075;51;19942;-85
2023/08/09 17:54:44;;;;;;;;;;;;;;;19.82;66.55;100034.47;1087337;54;19943;-80
2023/08/09 17:55:45;;;;;;;;;;;;;;;19.91;66.34;100030.56;1085028;54;19974;-84
2023/08/09 17:56:48;;;;;;;;;;;;;;;19.92;65.91;100037.66;1085161;39;20152;-80
2023/08/09 17:57:50;;;;;;;;;;;;;;;19.85;65.58;100034.03;1085880;54;19947;-80
2023/08/09 17:58:54;;;;;;;;;;;;;;;19.69;64.54;100036.13;1086970;54;19991;-81
2023/08/09 17:59:55;;;;;;;;;;;;;;;19.66;62.76;100035.69;1086010;54;19942;-80
2023/08/09 18:00:59;;;;;;;;;;;;;;;19.67;62.19;100038.19;1086342;31;20501;-81
2023/08/09 18:01:59;;;;;;;;;;;;;;;19.72;61.65;100040.28;1084412;54;19947;-81
2023/08/09 18:03:03;;;;;;;;;;;;;;;19.76;61.47;100050.50;1086473;54;20006;-80
2023/08/09 18:04:04;;;;;;;;;;;;;;;19.71;60.86;100046.75;1084009;39;20456;-80
2023/08/09 18:05:09;;;;;;;;;;;;;;;19.77;60.61;100049.47;1083971;47;19951;-80
2023/08/09 18:06:10;;;;;;;;;;;;;;;19.86;60.78;100038.47;1084074;47;19951;-81
2023/08/09 18:07:14;;;;;;;;;;;;;;;19.92;60.70;100046.63;1084449;47;20063;-81
2023/08/09 18:08:17;;;;;;;;;;;;;;;19.97;60.71;100043.28;1086190;47;19947;-81
2023/08/09 18:09:21;;;;;;;;;;;;;;;19.94;60.13;100054.53;1085128;47;19970;-80
2023/08/09 18:10:21;;;;;;;;;;;;;;;19.80;60.24;100054.50;1090763;31;20587;-80
2023/08/09 18:11:25;;;;;;;;;;;;;;;19.76;60.61;100055.13;1086113;54;19942;-81
2023/08/09 18:12:27;;;;;;;;;;;;;;;19.70;60.88;100059.47;1083810;54;20006;-80
2023/08/09 18:13:30;;;;;;;;;;;;;;;19.63;60.60;100053.22;1083095;47;20444;-80
2023/08/09 18:14:32;;;;;;;;;;;;;;;19.69;60.96;100057.81;1084489;39;20361;-80
2023/08/09 18:15:35;;;;;;;;;;;;;;;19.59;60.91;100062.78;1084272;54;19950;-80
2023/08/09 18:16:37;;;;;;;;;;;;;;;19.51;61.44;100060.25;1084163;54;19950;-81
2023/08/09 18:17:40;;;;;;;;;;;;;;;19.53;61.43;100058.19;1086414;39;20152;-80
2023/08/09 18:18:41;;;;;;;;;;;;;;;19.45;61.79;100064.59;1084936;54;19953;-80
2023/08/09 18:19:45;;;;;;;;;;;;;;;19.42;62.18;100063.16;1086065;54;20070;-79
2023/08/09 18:20:46;;;;;;;;;;;;;;;19.34;62.92;100068.75;1085298;47;19939;-80
2023/08/09 18:21:49;;;;;;;;;;;;;;;19.36;62.76;100069.38;1084184;54;19981;-83
2023/08/09 18:22:51;;;;;;;;;;;;;;;19.39;63.51;100074.38;1085457;39;20432;-82
2023/08/09 18:23:56;;;;;;;;;;;;;;;19.20;64.74;100073.28;1085178;47;20054;-81
2023/08/09 18:25:00;;;;;;;;;;;;;;;19.27;64.77;100070.59;1086161;39;20457;-81
2023/08/09 18:26:00;;;;;;;;;;;;;;;19.26;64.88;100074.34;1085879;47;19977;-82
2023/08/09 18:27:04;;;;;;;;;;;;;;;19.29;64.87;100074.78;1086206;54;19950;-82
2023/08/09 18:28:05;;;;;;;;;;;;;;;19.35;65.18;100073.13;1086370;47;20010;-82
2023/08/09 18:29:10;;;;;;;;;;;;;;;19.32;65.37;100073.53;1086889;54;19963;-82
2023/08/09 18:30:11;;;;;;;;;;;;;;;19.39;65.49;100074.38;1086725;47;19945;-81
2023/08/09 18:31:15;;;;;;;;;;;;;;;19.46;64.84;100069.81;1086547;54;19950;-82
2023/08/09 18:32:16;;;;;;;;;;;;;;;19.42;65.60;100079.41;1086193;54;19958;-81
2023/08/09 18:33:20;;;;;;;;;;;;;;;19.36;66.09;100077.53;1086495;47;19991;-81
2023/08/09 18:34:20;;;;;;;;;;;;;;;19.22;66.52;100084.75;1086978;47;19946;-83
2023/08/09 18:35:24;;;;;;;;;;;;;;;19.24;66.52;100087.25;1086635;47;19963;-82
2023/08/09 18:36:26;;;;;;;;;;;;;;;19.28;66.65;100088.50;1086692;47;19964;-83
2023/08/09 18:37:29;;;;;;;;;;;;;;;19.29;66.99;100085.63;1086515;47;19947;-82
2023/08/09 18:38:30;;;;;;;;;;;;;;;19.36;66.77;100093.78;1086646;47;20056;-81
2023/08/09 18:39:36;;;;;;;;;;;;;;;19.16;67.87;100096.38;1087743;39;20793;-82
2023/08/09 18:40:38;;;;;;;;;;;;;;;19.10;68.28;100089.06;1086598;47;19958;-82
2023/08/09 18:41:42;;;;;;;;;;;;;;;19.05;68.43;100095.06;1086031;54;19946;-81
2023/08/09 18:42:43;;;;;;;;;;;;;;;19.03;68.88;100097.13;1086027;54;20700;-82
2023/08/09 18:43:47;;;;;;;;;;;;;;;18.94;68.72;100104.56;1085651;54;19975;-82
2023/08/09 18:44:49;;;;;;;;;;;;;;;18.85;68.36;100106.59;1085990;47;21467;-82
2023/08/09 18:45:52;;;;;;;;;;;;;;;18.96;67.96;100104.38;1086006;54;19987;-82
2023/08/09 18:46:53;;;;;;;;;;;;;;;18.88;68.27;100102.63;1086142;46;20072;-82
2023/08/09 18:47:57;;;;;;;;;;;;;;;18.90;68.34;100110.56;1085610;46;19950;-81
2023/08/09 18:48:58;;;;;;;;;;;;;;;18.88;68.10;100107.22;1085928;54;19968;-82
2023/08/09 18:49:59;;;;;;;;;;;;;;;18.88;68.52;100107.22;1085437;54;19976;-82
2023/08/09 18:51:04;;;;;;;;;;;;;;;18.89;67.69;100111.63;1085928;47;19958;-82
2023/08/09 18:52:05;;;;;;;;;;;;;;;18.86;67.52;100112.81;1085292;46;19950;-81
2023/08/09 18:53:10;;;;;;;;;;;;;;;18.74;67.85;100117.13;1085525;54;19953;-82
2023/08/09 18:54:11;;;;;;;;;;;;;;;18.82;67.70;100106.97;1087682;39;20441;-81
2023/08/09 18:55:18;;;;;;;;;;;;;;;18.89;67.46;100119.75;1085962;54;21106;-82
2023/08/09 18:56:19;;;;;;;;;;;;;;;18.82;66.56;100117.81;1086010;54;20005;-81
2023/08/09 18:57:24;;;;;;;;;;;;;;;18.76;66.50;100117.75;1086382;54;19943;-82
2023/08/09 18:58:25;;;;;;;;;;;;;;;18.74;66.48;100120.66;1085975;47;19973;-82
2023/08/09 18:59:29;;;;;;;;;;;;;;;18.78;66.07;100113.84;1086106;47;19950;-81
2023/08/09 19:00:31;;;;;;;;;;;;;;;18.67;65.37;100117.91;1086660;47;19946;-82
2023/08/09 19:01:33;;;;;;;;;;;;;;;18.59;66.23;100114.50;1086532;54;19957;-82
2023/08/09 19:02:37;;;;;;;;;;;;;;;18.52;65.82;100128.81;1085778;47;19938;-82
2023/08/09 19:03:38;;;;;;;;;;;;;;;18.53;66.15;100124.25;1086589;47;19939;-82
2023/08/09 19:04:41;;;;;;;;;;;;;;;18.64;65.60;100121.00;1086600;54;19950;-81
2023/08/09 19:05:42;;;;;;;;;;;;;;;18.65;65.32;100132.66;1086926;54;19947;-81
2023/08/09 19:06:46;;;;;;;;;;;;;;;18.63;65.41;100129.31;1086570;54;19969;-81
2023/08/09 19:07:46;;;;;;;;;;;;;;;18.56;65.72;100129.28;1088447;39;20773;-81
2023/08/09 19:08:50;;;;;;;;;;;;;;;18.64;65.34;100131.84;1085543;47;19972;-81
2023/08/09 19:09:51;;;;;;;;;;;;;;;18.74;64.91;100128.78;1086433;54;19999;-80
2023/08/09 19:10:57;;;;;;;;;;;;;;;18.75;64.74;100126.94;1085708;46;19954;-80
2023/08/09 19:11:58;;;;;;;;;;;;;;;18.69;64.75;100133.97;1085604;54;19992;-81
2023/08/09 19:13:01;;;;;;;;;;;;;;;18.70;64.74;100147.28;1086079;54;19958;-80
2023/08/09 19:14:03;;;;;;;;;;;;;;;18.67;64.76;100133.31;1086333;47;19946;-81
2023/08/09 19:15:06;;;;;;;;;;;;;;;18.59;63.81;100139.69;1086155;47;19938;-81
2023/08/09 19:16:10;;;;;;;;;;;;;;;18.48;63.68;100143.78;1085957;47;19946;-81
2023/08/09 19:17:11;;;;;;;;;;;;;;;18.36;63.86;100145.31;1085639;54;19977;-81
2023/08/09 19:18:14;;;;;;;;;;;;;;;18.43;63.60;100150.81;1085331;46;19969;-81
2023/08/09 19:19:15;;;;;;;;;;;;;;;18.42;62.59;100149.13;1085691;47;19947;-81
2023/08/09 19:20:19;;;;;;;;;;;;;;;18.42;62.66;100149.13;1085756;54;20908;-81
2023/08/09 19:21:20;;;;;;;;;;;;;;;18.44;62.80;100145.19;1088021;31;20655;-80
2023/08/09 19:22:25;;;;;;;;;;;;;;;18.50;62.50;100146.28;1085430;54;19972;-81
2023/08/09 19:23:25;;;;;;;;;;;;;;;18.43;61.65;100154.34;1085221;54;21036;-80
2023/08/09 19:24:29;;;;;;;;;;;;;;;18.42;61.45;100154.53;1085363;54;20097;-80
2023/08/09 19:25:30;;;;;;;;;;;;;;;18.47;61.67;100152.94;1085270;47;19948;-80
2023/08/09 19:26:36;;;;;;;;;;;;;;;18.54;61.41;100153.81;1085218;47;19947;-80
2023/08/09 19:27:37;;;;;;;;;;;;;;;18.46;61.57;100151.25;1085707;47;19959;-81
2023/08/09 19:28:41;;;;;;;;;;;;;;;18.49;61.42;100150.00;1085656;46;19950;-80
2023/08/09 19:29:41;;;;;;;;;;;;;;;18.55;61.18;100155.50;1085812;54;19946;-80
2023/08/09 19:30:45;;;;;;;;;;;;;;;18.58;60.78;100153.44;1085962;39;20858;-80
2023/08/09 19:31:46;;;;;;;;;;;;;;;18.46;61.21;100151.25;1087494;39;20437;-81
2023/08/09 19:32:49;;;;;;;;;;;;;;;18.53;60.77;100149.44;1085623;54;19946;-81
2023/08/09 19:33:52;;;;;;;;;;;;;;;18.60;60.71;100154.09;1085470;46;19950;-81
2023/08/09 19:34:55;;;;;;;;;;;;;;;18.61;60.29;100148.47;1085247;54;19950;-80
2023/08/09 19:35:56;;;;;;;;;;;;;;;18.66;60.76;100156.00;1087402;31;20535;-81
2023/08/09 19:37:00;;;;;;;;;;;;;;;18.70;60.50;100158.13;1085293;47;19939;-81
2023/08/09 19:38:01;;;;;;;;;;;;;;;18.69;60.12;100156.44;1086617;39;20718;-80
2023/08/09 19:39:05;;;;;;;;;;;;;;;18.63;60.09;100148.25;1085167;47;19947;-81
2023/08/09 19:40:09;;;;;;;;;;;;;;;18.60;59.77;100154.91;1085441;54;19943;-80
2023/08/09 19:41:12;;;;;;;;;;;;;;;18.60;59.89;100156.78;1085428;46;19961;-80
2023/08/09 19:42:17;;;;;;;;;;;;;;;18.64;59.93;100160.78;1086027;47;19950;-81
2023/08/09 19:43:20;;;;;;;;;;;;;;;18.64;59.70;100158.91;1086394;47;19939;-81
2023/08/09 19:44:21;;;;;;;;;;;;;;;18.67;59.65;100160.38;1086486;39;20507;-81
2023/08/09 19:45:25;;;;;;;;;;;;;;;18.68;59.55;100157.47;1085968;54;19945;-81
2023/08/09 19:46:25;;;;;;;;;;;;;;;18.75;59.15;100160.25;1086254;39;20796;-81
2023/08/09 19:47:29;;;;;;;;;;;;;;;18.73;59.62;100164.19;1085670;54;19943;-81
2023/08/09 19:48:29;;;;;;;;;;;;;;;18.76;59.20;100167.34;1085778;54;20221;-80
2023/08/09 19:49:33;;;;;;;;;;;;;;;18.81;59.25;100159.44;1087324;39;20528;-79
2023/08/09 19:50:34;;;;;;;;;;;;;;;18.79;59.38;100166.97;1085960;47;19973;-80
2023/08/09 19:51:37;;;;;;;;;;;;;;;18.81;59.59;100159.44;1086012;54;19997;-81
2023/08/09 19:52:38;;;;;;;;;;;;;;;18.82;59.49;100163.84;1085703;47;19958;-81
2023/08/09 19:53:41;;;;;;;;;;;;;;;18.76;59.84;100169.19;1089186;39;20531;-81
2023/08/09 19:54:42;;;;;;;;;;;;;;;18.75;60.24;100167.53;1085628;54;19946;-81
2023/08/09 19:55:44;;;;;;;;;;;;;;;18.65;60.32;100166.00;1085038;54;20014;-81
2023/08/09 19:56:49;;;;;;;;;;;;;;;18.52;60.83;100163.16;1085719;54;19978;-81
2023/08/09 19:57:53;;;;;;;;;;;;;;;18.49;61.08;100160.84;1085588;54;19947;-80
2023/08/09 19:58:57;;;;;;;;;;;;;;;18.53;61.06;100162.16;1084836;54;19977;-80
2023/08/09 19:59:58;;;;;;;;;;;;;;;18.54;60.93;100164.66;1085529;39;20743;-81
2023/08/09 20:01:05;;;;;;;;;;;;;;;18.55;60.99;100160.09;1085371;47;19956;-81
2023/08/09 20:02:09;;;;;;;;;;;;;;;18.59;60.83;100165.94;1085609;46;19976;-80
2023/08/09 20:03:10;;;;;;;;;;;;;;;18.67;60.56;100163.09;1084950;47;19943;-80
2023/08/09 20:04:13;;;;;;;;;;;;;;;18.69;60.50;100167.28;1084979;54;20006;-80
2023/08/09 20:05:16;;;;;;;;;;;;;;;18.75;60.68;100165.66;1085790;47;19957;-82
2023/08/09 20:06:18;;;;;;;;;;;;;;;18.66;59.71;100162.25;1086529;54;19970;-80
2023/08/09 20:07:22;;;;;;;;;;;;;;;18.61;59.76;100164.72;1087694;39;20586;-81
2023/08/09 20:08:23;;;;;;;;;;;;;;;18.64;60.27;100163.47;1086649;51;19963;-81
2023/08/09 20:09:26;;;;;;;;;;;;;;;18.69;59.76;100161.88;1086647;47;20927;-81
2023/08/09 20:10:30;;;;;;;;;;;;;;;18.75;59.93;100171.06;1086799;54;19946;-80
2023/08/09 20:11:33;;;;;;;;;;;;;;;18.72;59.62;100166.03;1086472;46;19988;-81
2023/08/09 20:12:34;;;;;;;;;;;;;;;18.69;59.98;100172.69;1086594;47;19946;-82
2023/08/09 20:13:40;;;;;;;;;;;;;;;18.73;59.63;100170.44;1086690;54;19943;-81
2023/08/09 20:14:41;;;;;;;;;;;;;;;18.66;59.43;100173.06;1087030;47;20030;-82
2023/08/09 20:15:45;;;;;;;;;;;;;;;18.53;59.71;100170.25;1087126;54;19942;-82
2023/08/09 20:16:45;;;;;;;;;;;;;;;18.58;59.72;100175.09;1087032;54;19997;-80
2023/08/09 20:17:46;;;;;;;;;;;;;;;18.61;59.71;100172.84;1086286;54;19950;-81
2023/08/09 20:18:50;;;;;;;;;;;;;;;18.62;59.71;100171.81;1086416;54;19954;-81
2023/08/09 20:19:52;;;;;;;;;;;;;;;18.66;59.46;100173.06;1087948;39;20558;-81
2023/08/09 20:20:56;;;;;;;;;;;;;;;18.68;59.86;100164.78;1086211;54;19956;-81
2023/08/09 20:21:57;;;;;;;;;;;;;;;18.66;59.58;100173.06;1086384;54;20573;-82
2023/08/09 20:23:02;;;;;;;;;;;;;;;18.70;59.50;100162.72;1086378;46;19964;-82
2023/08/09 20:24:11;;;;;;;;;;;;;;;18.72;59.52;100160.63;1086501;54;20599;-82
2023/08/09 20:25:14;;;;;;;;;;;;;;;18.60;59.87;100156.78;1086719;46;20022;-83
2023/08/09 20:26:15;;;;;;;;;;;;;;;18.51;60.14;100156.94;1086327;54;19942;-82
2023/08/09 20:27:19;;;;;;;;;;;;;;;18.51;60.13;100165.06;1086525;47;19958;-82
2023/08/09 20:28:20;;;;;;;;;;;;;;;18.49;60.31;100167.09;1086523;46;20129;-81